Time;durP1;ratioP1;P1;durP2;ratioP2;P2;SDS_P1;SDS_P2;PMS_P1;PMS_P2;Temp;Humidity;BMP_temperature;BMP_pressure;BME280_temperature;BME280_humidity;BME280_pressure;Samples;Min_cycle;Max_cycle;Signal;HPM_P1;HPM_P2
2023/01/20 00:00:24;;;;;;;5.07;1.50;;;1.60;99.90;;;;;;5102439;28;20492;-80
2023/01/20 00:02:50;;;;;;;2.78;1.73;;;0.60;99.90;;;;;;5075803;28;20137;-80
2023/01/20 00:05:15;;;;;;;3.67;1.70;;;0.60;99.90;;;;;;5099133;28;20039;-81
2023/01/20 00:07:41;;;;;;;3.55;1.42;;;1.40;99.90;;;;;;5095750;28;20439;-79
2023/01/20 00:10:08;;;;;;;3.10;1.70;;;0.50;99.90;;;;;;5076289;28;20050;-79
2023/01/20 00:12:34;;;;;;;2.08;1.20;;;0.50;99.90;;;;;;5095897;28;20062;-80
2023/01/20 00:14:59;;;;;;;2.33;1.50;;;-0.70;99.90;;;;;;5082925;28;20039;-80
2023/01/20 00:17:26;;;;;;;2.72;1.42;;;0.50;99.90;;;;;;5094090;28;20071;-81
2023/01/20 00:19:52;;;;;;;3.55;1.40;;;2.30;99.90;;;;;;5110360;28;20066;-79
2023/01/20 00:22:21;;;;;;;2.35;1.30;;;0.50;99.90;;;;;;5063245;28;20054;-80
2023/01/20 00:24:47;;;;;;;2.45;1.10;;;0.50;99.90;;;;;;5084914;28;20035;-78
2023/01/20 00:27:13;;;;;;;2.40;1.10;;;0.50;99.90;;;;;;5110375;27;20066;-79
2023/01/20 00:29:42;;;;;;;2.13;1.00;;;1.90;99.90;;;;;;5069987;27;20054;-79
2023/01/20 00:32:09;;;;;;;2.13;1.10;;;0.60;99.90;;;;;;5095506;27;20047;-80
2023/01/20 00:34:35;;;;;;;2.55;1.00;;;1.90;99.90;;;;;;5086399;27;20043;-81
2023/01/20 00:37:01;;;;;;;2.25;0.80;;;1.00;99.90;;;;;;5098371;27;20468;-80
2023/01/20 00:39:26;;;;;;;1.52;1.00;;;0.90;99.90;;;;;;5097643;27;20628;-79
2023/01/20 00:41:52;;;;;;;4.20;1.10;;;0.70;99.90;;;;;;5089976;27;20042;-80
2023/01/20 00:44:18;;;;;;;2.10;0.90;;;0.80;99.90;;;;;;5084860;27;20062;-81
2023/01/20 00:46:44;;;;;;;2.08;1.00;;;0.80;99.90;;;;;;5067652;27;20042;-80
2023/01/20 00:49:10;;;;;;;2.70;1.23;;;1.70;99.90;;;;;;5096545;27;20055;-79
2023/01/20 00:51:36;;;;;;;4.45;1.20;;;0.80;99.90;;;;;;5097110;27;20108;-80
2023/01/20 00:54:02;;;;;;;3.70;1.38;;;1.00;99.90;;;;;;5095917;27;20035;-79
2023/01/20 00:56:27;;;;;;;3.30;1.15;;;0.90;99.90;;;;;;5104062;27;20043;-80
2023/01/20 00:58:56;;;;;;;3.03;1.30;;;1.10;99.90;;;;;;5100520;27;20096;-81
2023/01/20 01:01:22;;;;;;;3.25;1.35;;;1.20;99.90;;;;;;5081543;27;20064;-81
2023/01/20 01:03:48;;;;;;;3.88;1.20;;;1.30;99.90;;;;;;5100669;27;20121;-79
2023/01/20 01:06:17;;;;;;;3.30;1.38;;;1.50;99.90;;;;;;5087069;27;20043;-79
2023/01/20 01:08:43;;;;;;;3.17;1.20;;;1.30;99.90;;;;;;5100548;27;20278;-80
2023/01/20 01:11:10;;;;;;;3.58;1.25;;;1.40;99.90;;;;;;5115146;27;20046;-79
2023/01/20 01:13:37;;;;;;;3.30;1.40;;;1.40;99.90;;;;;;5113365;27;20051;-81
2023/01/20 01:16:04;;;;;;;2.83;1.20;;;1.40;99.90;;;;;;5103886;27;20117;-80
2023/01/20 01:18:30;;;;;;;1.40;0.82;;;1.30;99.90;;;;;;5087423;27;20070;-80
2023/01/20 01:20:56;;;;;;;1.50;0.90;;;1.30;99.90;;;;;;5118343;27;20169;-81
2023/01/20 01:23:22;;;;;;;1.83;0.80;;;1.90;99.90;;;;;;5105006;27;20369;-80
2023/01/20 01:25:48;;;;;;;2.00;1.10;;;1.30;99.90;;;;;;5098496;27;20039;-78
2023/01/20 01:28:14;;;;;;;3.25;1.10;;;2.10;99.90;;;;;;5098017;27;20116;-78
2023/01/20 01:30:40;;;;;;;2.53;1.17;;;1.10;99.90;;;;;;5082183;27;20082;-81
2023/01/20 01:33:05;;;;;;;2.38;1.20;;;2.80;99.90;;;;;;5101189;27;20050;-80
2023/01/20 01:35:31;;;;;;;2.53;1.20;;;2.90;99.90;;;;;;5087965;27;20050;-78
2023/01/20 01:37:57;;;;;;;3.28;1.30;;;1.00;99.90;;;;;;5072413;27;20046;-79
2023/01/20 01:40:23;;;;;;;4.82;1.30;;;2.10;99.90;;;;;;5085418;27;20122;-80
2023/01/20 01:42:49;;;;;;;2.17;1.30;;;1.00;99.90;;;;;;5114529;27;20093;-81
2023/01/20 01:45:22;;;;;;;3.72;1.58;;;1.90;99.90;;;;;;5096237;27;20618;-78
2023/01/20 01:47:57;;;;;;;3.00;1.70;;;1.90;99.90;;;;;;5106149;27;20045;-79
2023/01/20 01:50:28;;;;;;;4.32;1.55;;;1.60;99.90;;;;;;5116345;27;20060;-80
2023/01/20 01:52:55;;;;;;;4.97;1.73;;;0.80;99.90;;;;;;5097762;27;20054;-78
2023/01/20 01:55:26;;;;;;;3.17;1.67;;;2.10;99.90;;;;;;5089333;27;20054;-79
2023/01/20 01:57:53;;;;;;;3.50;1.60;;;1.60;99.90;;;;;;5110487;27;20059;-78
2023/01/20 02:00:20;;;;;;;3.42;1.60;;;1.90;99.90;;;;;;5096830;27;20053;-78
2023/01/20 02:02:46;;;;;;;4.65;2.35;;;0.70;99.90;;;;;;5114054;27;20043;-79
2023/01/20 02:05:14;;;;;;;4.07;1.70;;;0.70;99.90;;;;;;5115755;27;20042;-80
2023/01/20 02:07:44;;;;;;;4.50;2.00;;;0.70;99.90;;;;;;5115175;27;20058;-78
2023/01/20 02:10:11;;;;;;;3.80;1.85;;;0.60;99.90;;;;;;5101460;27;20042;-78
2023/01/20 02:12:37;;;;;;;5.25;1.85;;;0.60;99.90;;;;;;5103386;27;20054;-78
2023/01/20 02:15:04;;;;;;;4.65;2.00;;;0.60;99.90;;;;;;5101480;27;20081;-78
2023/01/20 02:17:38;;;;;;;3.13;1.90;;;0.50;99.90;;;;;;5095548;27;20416;-78
2023/01/20 02:20:29;;;;;;;4.28;1.90;;;0.50;99.90;;;;;;5114619;27;20790;-80
2023/01/20 02:23:18;;;;;;;4.20;2.05;;;0.50;99.90;;;;;;5098150;27;20050;-80
2023/01/20 02:26:06;;;;;;;3.92;2.40;;;0.40;99.90;;;;;;5114224;27;20043;-80
2023/01/20 02:29:07;;;;;;;4.80;2.28;;;0.40;99.90;;;;;;5079560;27;20506;-79
2023/01/20 02:31:51;;;;;;;3.67;2.28;;;0.30;99.90;;;;;;5112435;27;20055;-80
2023/01/20 02:34:25;;;;;;;3.13;2.05;;;0.30;99.90;;;;;;5113753;27;20034;-79
2023/01/20 02:37:01;;;;;;;5.45;2.25;;;0.60;99.90;;;;;;5097630;27;20058;-80
2023/01/20 02:39:36;;;;;;;3.75;2.60;;;1.40;99.90;;;;;;5114519;27;20038;-80
2023/01/20 02:42:41;;;;;;;5.40;2.30;;;0.20;99.90;;;;;;5115095;27;20038;-79
2023/01/20 02:45:10;;;;;;;4.25;2.80;;;0.20;99.90;;;;;;5089609;27;20111;-79
2023/01/20 02:47:51;;;;;;;6.50;2.47;;;0.20;99.90;;;;;;5097477;27;20139;-80
2023/01/20 02:50:28;;;;;;;3.90;2.60;;;0.20;99.90;;;;;;5113543;27;20763;-80
2023/01/20 02:52:58;;;;;;;6.22;2.90;;;0.20;99.90;;;;;;5099697;27;20555;-80
2023/01/20 02:55:37;;;;;;;4.05;2.53;;;0.10;99.90;;;;;;5113805;27;20043;-80
2023/01/20 02:58:12;;;;;;;5.32;2.83;;;1.70;99.90;;;;;;5099898;27;20054;-80
2023/01/20 03:00:57;;;;;;;8.90;3.22;;;1.50;99.90;;;;;;5103051;27;20039;-80
2023/01/20 03:03:31;;;;;;;4.07;2.50;;;0.10;99.90;;;;;;5098864;27;20046;-79
2023/01/20 03:06:01;;;;;;;4.38;2.65;;;1.90;99.90;;;;;;5113832;27;20492;-80
2023/01/20 03:08:30;;;;;;;6.47;3.40;;;1.90;99.90;;;;;;5103179;27;20047;-81
2023/01/20 03:11:01;;;;;;;3.88;2.75;;;2.00;99.90;;;;;;5097860;27;20054;-81
2023/01/20 03:13:45;;;;;;;7.05;2.60;;;0.10;99.90;;;;;;5097106;27;20118;-80
2023/01/20 03:16:16;;;;;;;6.07;3.30;;;0.00;99.90;;;;;;5103358;27;20047;-80
2023/01/20 03:18:42;;;;;;;5.03;2.95;;;0.00;99.90;;;;;;5114209;27;20475;-80
2023/01/20 03:21:09;;;;;;;7.10;2.85;;;1.30;99.90;;;;;;5080886;27;20046;-80
2023/01/20 03:23:43;;;;;;;4.65;3.28;;;-0.10;99.90;;;;;;5112434;27;20142;-79
2023/01/20 03:26:12;;;;;;;5.85;2.75;;;0.40;99.90;;;;;;5101969;27;20158;-80
2023/01/20 03:28:38;;;;;;;6.03;3.13;;;1.80;99.90;;;;;;5095596;27;20089;-80
2023/01/20 03:31:29;;;;;;;7.85;4.20;;;-0.10;99.90;;;;;;5081761;27;20175;-80
2023/01/20 03:33:58;;;;;;;7.28;4.30;;;-0.10;99.90;;;;;;5097217;27;20038;-81
2023/01/20 03:36:27;;;;;;;8.65;4.28;;;1.80;99.90;;;;;;5116371;27;20075;-79
2023/01/20 03:38:54;;;;;;;7.35;4.53;;;0.00;99.90;;;;;;5102208;27;20034;-79
2023/01/20 03:41:32;;;;;;;9.20;5.32;;;1.90;99.90;;;;;;5084667;27;20043;-80
2023/01/20 03:44:11;;;;;;;8.82;5.43;;;1.40;99.90;;;;;;5100727;27;20047;-80
2023/01/20 03:47:08;;;;;;;7.63;5.45;;;-0.10;99.90;;;;;;5105271;27;20100;-80
2023/01/20 03:49:49;;;;;;;8.70;5.85;;;-1.00;99.90;;;;;;5074153;27;20055;-81
2023/01/20 03:52:33;;;;;;;11.10;7.28;;;-0.10;99.90;;;;;;5131123;27;20046;-80
2023/01/20 03:55:09;;;;;;;11.95;7.50;;;0.00;99.90;;;;;;5110746;27;20067;-81
2023/01/20 03:57:42;;;;;;;12.55;7.15;;;0.00;99.90;;;;;;5110451;27;20051;-81
2023/01/20 04:00:10;;;;;;;12.27;7.30;;;1.60;99.90;;;;;;5110450;27;20074;-79
2023/01/20 04:02:37;;;;;;;14.70;8.13;;;0.00;99.90;;;;;;5082272;27;20059;-81
2023/01/20 04:05:06;;;;;;;11.25;7.63;;;1.80;99.90;;;;;;5096113;27;20101;-80
2023/01/20 04:07:32;;;;;;;12.43;6.80;;;0.00;99.90;;;;;;5092655;27;20053;-80
2023/01/20 04:10:03;;;;;;;13.95;7.68;;;1.50;99.90;;;;;;5101390;27;20071;-80
2023/01/20 04:12:29;;;;;;;13.48;8.02;;;0.30;99.90;;;;;;5097183;27;20086;-79
2023/01/20 04:14:55;;;;;;;11.73;7.57;;;0.00;99.90;;;;;;5081418;27;20126;-81
2023/01/20 04:17:25;;;;;;;12.38;7.88;;;0.20;99.90;;;;;;5098975;27;20201;-79
2023/01/20 04:19:50;;;;;;;13.23;8.80;;;0.80;99.90;;;;;;5113838;27;20043;-79
2023/01/20 04:22:37;;;;;;;15.52;8.25;;;1.70;99.90;;;;;;5087296;27;20050;-79
2023/01/20 04:25:19;;;;;;;13.15;7.80;;;0.00;99.90;;;;;;5101097;27;20058;-79
2023/01/20 04:27:45;;;;;;;12.27;8.00;;;0.00;99.90;;;;;;5101317;27;20757;-79
2023/01/20 04:30:13;;;;;;;15.75;8.27;;;-0.80;99.90;;;;;;5097578;27;20062;-80
2023/01/20 04:32:38;;;;;;;12.93;7.78;;;0.00;99.90;;;;;;5095755;27;20065;-80
2023/01/20 04:35:05;;;;;;;12.85;7.57;;;0.20;99.90;;;;;;5097844;27;20039;-78
2023/01/20 04:37:30;;;;;;;13.00;8.15;;;0.00;99.90;;;;;;5063399;27;20113;-79
2023/01/20 04:39:56;;;;;;;13.10;8.27;;;0.00;99.90;;;;;;5113348;27;20168;-79
2023/01/20 04:42:22;;;;;;;12.65;7.85;;;-0.10;99.90;;;;;;5081923;27;20512;-80
2023/01/20 04:44:47;;;;;;;14.23;8.13;;;1.50;99.90;;;;;;5093098;27;20086;-79
2023/01/20 04:47:13;;;;;;;15.15;7.80;;;0.90;99.90;;;;;;5085391;27;20074;-79
2023/01/20 04:49:39;;;;;;;14.93;8.60;;;1.80;99.90;;;;;;5082696;27;20043;-82
2023/01/20 04:52:04;;;;;;;13.70;7.95;;;0.70;99.90;;;;;;5089300;27;20046;-80
2023/01/20 04:54:30;;;;;;;17.25;7.60;;;0.00;99.90;;;;;;5083830;27;20047;-80
2023/01/20 04:56:56;;;;;;;11.18;7.10;;;0.00;99.90;;;;;;5092420;27;20613;-81
2023/01/20 04:59:22;;;;;;;14.40;7.75;;;0.00;99.90;;;;;;5099940;27;20057;-81
2023/01/20 05:01:47;;;;;;;11.20;7.20;;;2.10;99.90;;;;;;5087213;27;20047;-81
2023/01/20 05:04:13;;;;;;;12.23;6.70;;;0.00;99.90;;;;;;5092434;27;20117;-80
2023/01/20 05:06:41;;;;;;;11.00;6.28;;;0.10;99.90;;;;;;5086493;27;20047;-81
2023/01/20 05:09:12;;;;;;;12.57;6.97;;;0.70;99.90;;;;;;5098528;27;20051;-80
2023/01/20 05:11:37;;;;;;;10.30;6.50;;;0.90;99.90;;;;;;5100729;27;20083;-80
2023/01/20 05:14:03;;;;;;;12.95;6.55;;;0.60;99.90;;;;;;5097641;27;20042;-78
2023/01/20 05:16:30;;;;;;;11.43;6.20;;;0.80;99.90;;;;;;5090991;27;20054;-78
2023/01/20 05:18:57;;;;;;;11.15;6.43;;;0.50;99.90;;;;;;5074894;27;20054;-79
2023/01/20 05:21:22;;;;;;;10.85;6.25;;;1.20;99.90;;;;;;5100590;27;20066;-79
2023/01/20 05:23:48;;;;;;;9.77;6.07;;;1.30;99.90;;;;;;5096684;27;20046;-79
2023/01/20 05:26:14;;;;;;;11.95;6.80;;;1.70;99.90;;;;;;5082677;27;20099;-78
2023/01/20 05:28:43;;;;;;;13.10;6.47;;;0.50;99.90;;;;;;5085839;27;20520;-80
2023/01/20 05:31:08;;;;;;;15.10;7.60;;;0.20;99.90;;;;;;5106607;27;20479;-79
2023/01/20 05:33:35;;;;;;;13.88;8.43;;;0.60;99.90;;;;;;5085215;27;20076;-79
2023/01/20 05:36:05;;;;;;;11.80;7.75;;;0.60;99.90;;;;;;5086005;27;20046;-79
2023/01/20 05:38:31;;;;;;;15.73;8.65;;;0.20;99.90;;;;;;5099372;27;20160;-80
2023/01/20 05:41:00;;;;;;;14.32;7.57;;;1.80;99.90;;;;;;5089709;27;20050;-80
2023/01/20 05:43:27;;;;;;;13.98;8.23;;;1.70;99.90;;;;;;5084169;27;20491;-80
2023/01/20 05:45:52;;;;;;;16.30;8.80;;;1.10;99.90;;;;;;5104697;27;20050;-78
2023/01/20 05:48:18;;;;;;;20.60;10.75;;;2.10;99.90;;;;;;5072563;27;20050;-80
2023/01/20 05:50:44;;;;;;;19.25;10.63;;;1.10;99.90;;;;;;5097820;27;20672;-79
2023/01/20 05:53:10;;;;;;;20.23;11.10;;;1.70;99.90;;;;;;5113378;27;20111;-79
2023/01/20 05:55:35;;;;;;;25.90;11.63;;;1.10;99.90;;;;;;5083942;27;22390;-79
2023/01/20 05:58:02;;;;;;;22.90;12.23;;;1.60;99.90;;;;;;5117128;27;20039;-79
2023/01/20 06:00:28;;;;;;;25.38;12.80;;;1.60;99.90;;;;;;5105261;27;20778;-79
2023/01/20 06:02:54;;;;;;;25.52;12.60;;;1.10;99.90;;;;;;5122055;27;20054;-79
2023/01/20 06:05:20;;;;;;;27.27;13.60;;;0.30;99.90;;;;;;5135324;27;20047;-78
2023/01/20 06:07:46;;;;;;;23.92;13.55;;;0.80;99.90;;;;;;5069542;27;20054;-80
2023/01/20 06:10:11;;;;;;;25.15;14.05;;;0.30;99.90;;;;;;5104012;27;20050;-79
2023/01/20 06:12:38;;;;;;;29.30;14.48;;;0.00;99.90;;;;;;5097245;27;20074;-82
2023/01/20 06:15:05;;;;;;;27.48;13.85;;;0.40;99.90;;;;;;5116464;27;20121;-79
2023/01/20 06:17:30;;;;;;;28.85;15.45;;;0.40;99.90;;;;;;5100450;27;20102;-80
2023/01/20 06:19:56;;;;;;;32.47;15.57;;;1.70;99.90;;;;;;5072885;27;20488;-80
2023/01/20 06:22:22;;;;;;;30.45;14.50;;;1.70;99.90;;;;;;5087468;27;20134;-81
2023/01/20 06:24:48;;;;;;;35.22;16.75;;;2.40;99.90;;;;;;5082837;27;20051;-80
2023/01/20 06:27:14;;;;;;;32.83;16.48;;;0.60;99.90;;;;;;5118862;27;20089;-81
2023/01/20 06:29:39;;;;;;;35.38;15.90;;;1.50;99.90;;;;;;5114534;27;20082;-78
2023/01/20 06:32:05;;;;;;;34.17;16.42;;;0.70;99.90;;;;;;5114808;27;20079;-78
2023/01/20 06:34:31;;;;;;;43.97;18.02;;;0.90;99.90;;;;;;5087742;27;20039;-77
2023/01/20 06:36:57;;;;;;;35.20;17.35;;;1.00;99.90;;;;;;5082381;27;20373;-77
2023/01/20 06:39:23;;;;;;;37.00;16.80;;;1.40;99.90;;;;;;5079937;27;20066;-79
2023/01/20 06:41:48;;;;;;;36.13;17.55;;;1.10;99.90;;;;;;5088697;27;20578;-81
2023/01/20 06:44:15;;;;;;;46.67;20.92;;;1.10;99.90;;;;;;5116017;27;20122;-80
2023/01/20 06:46:41;;;;;;;38.88;18.58;;;2.30;99.90;;;;;;5097100;27;20114;-80
2023/01/20 06:49:07;;;;;;;39.70;18.63;;;1.10;99.90;;;;;;5083837;27;20114;-79
2023/01/20 06:51:32;;;;;;;45.88;21.00;;;1.10;99.90;;;;;;5120094;27;20057;-80
2023/01/20 06:53:58;;;;;;;45.63;20.08;;;1.00;99.90;;;;;;5072112;27;20038;-80
2023/01/20 06:56:24;;;;;;;42.60;19.17;;;1.80;99.90;;;;;;5081821;27;20062;-80
2023/01/20 06:58:50;;;;;;;41.70;18.63;;;2.40;99.90;;;;;;5098974;27;20139;-80
2023/01/20 07:01:28;;;;;;;41.25;19.27;;;0.80;99.90;;;;;;5084040;27;20453;-80
2023/01/20 07:03:59;;;;;;;39.85;18.65;;;2.10;99.90;;;;;;5116912;27;20506;-81
2023/01/20 07:06:33;;;;;;;38.30;17.98;;;0.90;99.90;;;;;;5099531;27;20043;-81
2023/01/20 07:09:00;;;;;;;39.25;17.08;;;2.30;99.90;;;;;;5120879;27;20509;-79
2023/01/20 07:11:27;;;;;;;37.10;16.73;;;1.30;99.90;;;;;;5106224;27;20043;-82
2023/01/20 07:13:53;;;;;;;32.70;15.15;;;1.00;99.90;;;;;;5106473;27;20411;-85
2023/01/20 07:16:19;;;;;;;34.13;16.05;;;;;;;;;;5089079;27;20046;-80
2023/01/20 07:18:50;;;;;;;27.63;15.20;;;1.00;99.90;;;;;;5114375;27;20050;-83
2023/01/20 07:21:17;;;;;;;31.23;16.63;;;1.00;99.90;;;;;;5099356;27;20043;-84
2023/01/20 07:23:44;;;;;;;34.95;16.20;;;1.20;99.90;;;;;;5108105;27;20035;-85
2023/01/20 07:26:12;;;;;;;31.38;16.00;;;1.10;99.90;;;;;;5113066;27;20086;-85
2023/01/20 07:28:38;;;;;;;35.80;17.90;;;2.00;99.90;;;;;;5113560;27;20054;-84
2023/01/20 07:31:33;;;;;;;43.10;19.20;;;1.30;99.90;;;;;;5120832;27;20369;-85
2023/01/20 07:33:59;;;;;;;40.92;18.25;;;1.10;99.90;;;;;;5098741;27;20050;-85
2023/01/20 07:36:28;;;;;;;37.78;18.10;;;2.10;99.90;;;;;;5120368;27;20062;-86
2023/01/20 07:38:59;;;;;;;35.47;17.98;;;-0.60;99.90;;;;;;5104530;27;20549;-86
2023/01/20 07:41:25;;;;;;;36.75;17.42;;;1.20;99.90;;;;;;5110366;27;20043;-80
2023/01/20 07:43:52;;;;;;;36.30;18.67;;;1.20;99.90;;;;;;5081881;27;20424;-80
2023/01/20 07:46:18;;;;;;;34.85;18.77;;;1.40;99.90;;;;;;5105550;27;20121;-80
2023/01/20 07:48:44;;;;;;;33.67;19.10;;;1.30;99.90;;;;;;5086441;27;20062;-80
2023/01/20 07:51:12;;;;;;;39.63;20.73;;;1.30;99.90;;;;;;5089400;27;20399;-80
2023/01/20 07:53:40;;;;;;;39.33;20.67;;;1.30;99.90;;;;;;5105310;27;20043;-80
2023/01/20 07:56:18;;;;;;;39.03;19.65;;;2.80;99.90;;;;;;5102153;27;20781;-81
2023/01/20 07:58:44;;;;;;;46.15;23.83;;;1.30;99.90;;;;;;5104910;27;20549;-80
2023/01/20 08:01:15;;;;;;;44.03;21.52;;;2.10;99.90;;;;;;5109510;27;20170;-80
2023/01/20 08:03:42;;;;;;;44.33;21.02;;;1.80;99.90;;;;;;5108951;27;20138;-81
2023/01/20 08:06:11;;;;;;;46.95;23.17;;;1.80;99.90;;;;;;5080913;27;21095;-81
2023/01/20 08:08:37;;;;;;;45.88;23.70;;;2.90;99.90;;;;;;5113996;27;20054;-81
2023/01/20 08:11:03;;;;;;;49.00;24.15;;;1.40;99.90;;;;;;5099848;27;20050;-80
2023/01/20 08:13:30;;;;;;;42.65;22.67;;;1.40;99.90;;;;;;5087212;27;20071;-80
2023/01/20 08:16:00;;;;;;;48.45;22.90;;;2.20;99.90;;;;;;5082563;27;20547;-82
2023/01/20 08:18:27;;;;;;;50.90;23.33;;;1.50;99.90;;;;;;5130404;27;20047;-80
2023/01/20 08:20:52;;;;;;;56.45;26.45;;;1.70;99.90;;;;;;5098883;27;20046;-79
2023/01/20 08:23:18;;;;;;;52.17;21.80;;;1.50;99.90;;;;;;5092993;27;20073;-80
2023/01/20 08:25:45;;;;;;;55.33;24.25;;;1.90;99.90;;;;;;5087303;27;20752;-81
2023/01/20 08:28:11;;;;;;;45.55;22.50;;;3.00;99.90;;;;;;5106582;27;20121;-79
2023/01/20 08:30:37;;;;;;;50.10;22.92;;;1.60;99.90;;;;;;5109978;27;20080;-80
2023/01/20 08:33:03;;;;;;;53.92;24.50;;;1.80;99.90;;;;;;5101589;27;20035;-79
2023/01/20 08:35:29;;;;;;;54.70;24.13;;;1.60;99.90;;;;;;5069858;27;20133;-79
2023/01/20 08:37:54;;;;;;;53.45;23.77;;;0.70;99.90;;;;;;5088814;27;20058;-79
2023/01/20 08:40:20;;;;;;;54.83;24.30;;;2.00;99.90;;;;;;5092090;27;20480;-79
2023/01/20 08:42:46;;;;;;;55.15;24.67;;;2.10;99.90;;;;;;5109684;27;20046;-80
2023/01/20 08:45:14;;;;;;;56.75;23.67;;;1.60;99.90;;;;;;5104355;27;20141;-79
2023/01/20 08:47:44;;;;;;;51.85;22.83;;;1.60;99.90;;;;;;5106398;27;20050;-80
2023/01/20 08:50:11;;;;;;;53.20;23.20;;;1.60;99.90;;;;;;5072834;27;20528;-80
2023/01/20 08:52:37;;;;;;;60.55;26.05;;;1.60;99.90;;;;;;5126210;27;20053;-79
2023/01/20 08:55:03;;;;;;;57.15;24.55;;;1.60;99.90;;;;;;5085690;27;20038;-80
2023/01/20 08:57:29;;;;;;;55.20;25.17;;;0.10;99.90;;;;;;5103148;27;20050;-82
2023/01/20 08:59:55;;;;;;;59.58;25.83;;;1.50;99.90;;;;;;5084003;27;20038;-81
2023/01/20 09:02:24;;;;;;;56.00;23.95;;;2.50;99.90;;;;;;5100814;27;20269;-81
2023/01/20 09:04:56;;;;;;;54.63;24.42;;;1.40;99.90;;;;;;5106697;27;20055;-82
2023/01/20 09:07:25;;;;;;;62.47;28.40;;;1.40;99.90;;;;;;5096648;27;20043;-83
2023/01/20 09:09:54;;;;;;;58.78;23.45;;;1.40;99.90;;;;;;5111115;27;20487;-83
2023/01/20 09:12:26;;;;;;;66.03;25.55;;;1.40;99.90;;;;;;5109714;27;20070;-84
2023/01/20 09:14:53;;;;;;;60.38;24.52;;;0.20;99.90;;;;;;5102921;27;20043;-83
2023/01/20 09:17:19;;;;;;;57.92;24.95;;;1.40;99.90;;;;;;5092669;27;20063;-82
2023/01/20 09:19:53;;;;;;;64.53;25.70;;;1.40;99.90;;;;;;5107908;27;20462;-82
2023/01/20 09:22:19;;;;;;;56.40;23.65;;;1.30;99.90;;;;;;5064624;27;20358;-83
2023/01/20 09:24:45;;;;;;;67.15;25.67;;;2.20;99.90;;;;;;5101629;27;20043;-83
2023/01/20 09:27:18;;;;;;;62.38;24.77;;;1.30;99.90;;;;;;5071730;27;20441;-82
2023/01/20 09:29:45;;;;;;;61.88;24.45;;;1.40;99.90;;;;;;5091895;27;20064;-82
2023/01/20 09:32:14;;;;;;;60.75;23.80;;;1.30;99.90;;;;;;5106457;27;20051;-81
2023/01/20 09:34:40;;;;;;;69.15;25.55;;;1.40;99.90;;;;;;5101880;27;20039;-82
2023/01/20 09:45:55;;;;;;;69.80;26.00;;;1.40;99.90;;;;;;5118845;27;20122;-83
2023/01/20 09:55:23;;;;;;;59.00;23.65;;;1.50;99.90;;;;;;5117916;27;20716;-83
2023/01/20 09:58:01;;;;;;;58.17;23.42;;;1.50;99.90;;;;;;5090953;27;20125;-80
2023/01/20 10:00:30;;;;;;;55.70;24.02;;;1.50;99.90;;;;;;5101515;27;20138;-80
2023/01/20 10:03:04;;;;;;;61.30;24.23;;;0.50;99.90;;;;;;5116499;27;20097;-81
2023/01/20 10:05:36;;;;;;;63.45;23.52;;;1.50;99.90;;;;;;5100733;27;20050;-82
2023/01/20 10:08:26;;;;;;;64.07;23.85;;;1.60;99.90;;;;;;5123576;27;20103;-80
2023/01/20 10:11:03;;;;;;;59.15;21.65;;;1.60;99.90;;;;;;5094341;27;20151;-80
2023/01/20 10:13:46;;;;;;;56.80;23.08;;;1.60;99.90;;;;;;5105897;27;20043;-81
2023/01/20 10:16:30;;;;;;;54.65;22.55;;;1.90;99.90;;;;;;5104418;27;20047;-80
2023/01/20 10:19:07;;;;;;;59.75;23.15;;;1.90;99.90;;;;;;5104126;27;20387;-81
2023/01/20 10:21:44;;;;;;;61.53;24.05;;;1.60;99.90;;;;;;5107525;27;20046;-80
2023/01/20 10:24:31;;;;;;;52.92;23.25;;;1.70;99.90;;;;;;5123766;27;20035;-81
2023/01/20 10:27:01;;;;;;;57.97;22.83;;;0.00;99.90;;;;;;5116958;27;20155;-81
2023/01/20 10:29:36;;;;;;;52.58;21.45;;;1.60;99.90;;;;;;5112685;27;20071;-81
2023/01/20 10:32:20;;;;;;;59.60;23.27;;;1.70;99.90;;;;;;5110891;27;20059;-81
2023/01/20 10:34:51;;;;;;;54.72;22.60;;;1.70;99.90;;;;;;5109294;27;20118;-82
2023/01/20 10:37:17;;;;;;;57.13;23.02;;;1.70;99.90;;;;;;5104613;27;20039;-81
2023/01/20 10:40:00;;;;;;;58.72;23.38;;;1.70;99.90;;;;;;5075748;27;20492;-84
2023/01/20 10:42:28;;;;;;;64.13;24.73;;;1.70;99.90;;;;;;5118314;27;20086;-84
2023/01/20 10:44:54;;;;;;;60.00;22.15;;;1.70;99.90;;;;;;5073241;27;20404;-84
2023/01/20 10:47:48;;;;;;;58.63;23.10;;;1.70;99.90;;;;;;5102142;27;20051;-83
2023/01/20 10:50:45;;;;;;;55.47;23.20;;;2.90;99.90;;;;;;5116261;27;20558;-83
2023/01/20 10:53:11;;;;;;;;;;;1.70;99.90;;;;;;5102750;27;20054;-85
2023/01/20 10:56:00;;;;;;;63.63;24.63;;;3.50;99.90;;;;;;5120954;27;20002;-85
2023/01/20 10:58:30;;;;;;;62.50;23.27;;;1.90;99.90;;;;;;5124815;27;20487;-84
2023/01/20 11:01:02;;;;;;;61.22;23.73;;;1.80;99.90;;;;;;5119784;27;21744;-83
2023/01/20 11:03:41;;;;;;;66.05;24.55;;;1.60;99.90;;;;;;5106979;27;20042;-83
2023/01/20 11:06:20;;;;;;;67.30;25.15;;;1.80;99.90;;;;;;5119067;27;20050;-82
2023/01/20 11:08:47;;;;;;;71.22;26.02;;;1.80;99.90;;;;;;5102223;27;20958;-82
2023/01/20 11:11:19;;;;;;;63.47;24.20;;;1.70;99.90;;;;;;5119644;27;20164;-82
2023/01/20 11:13:46;;;;;;;61.03;23.38;;;1.70;99.90;;;;;;5131797;27;20655;-83
2023/01/20 11:16:18;;;;;;;61.75;23.08;;;2.70;99.90;;;;;;5090399;27;20057;-83
2023/01/20 11:19:00;;;;;;;56.10;23.25;;;3.20;99.90;;;;;;5107773;27;20058;-82
2023/01/20 11:21:35;;;;;;;59.67;22.95;;;1.80;99.90;;;;;;5122057;27;20133;-81
2023/01/20 11:24:26;;;;;;;63.63;22.20;;;1.80;99.90;;;;;;5092338;27;20049;-83
2023/01/20 11:27:02;;;;;;;57.38;22.77;;;2.30;99.90;;;;;;5115025;27;20042;-82
2023/01/20 11:29:29;;;;;;;59.03;22.63;;;1.80;99.90;;;;;;5097205;27;20408;-83
2023/01/20 11:31:55;;;;;;;51.17;21.40;;;1.80;99.90;;;;;;5118694;27;20115;-81
2023/01/20 11:34:33;;;;;;;54.17;21.27;;;1.80;99.90;;;;;;5116156;27;20043;-79
2023/01/20 11:37:05;;;;;;;50.53;21.05;;;1.80;99.90;;;;;;5114259;27;20547;-81
2023/01/20 11:40:06;;;;;;;63.47;22.98;;;1.80;99.90;;;;;;5105566;27;20042;-81
2023/01/20 11:42:46;;;;;;;50.92;20.50;;;1.80;99.90;;;;;;5105733;27;20158;-82
2023/01/20 11:45:38;;;;;;;54.40;22.17;;;2.00;99.90;;;;;;5108687;27;20045;-81
2023/01/20 11:48:24;;;;;;;50.63;20.60;;;2.10;99.90;;;;;;5118543;27;20479;-81
2023/01/20 11:50:56;;;;;;;44.33;18.27;;;1.80;99.90;;;;;;5088323;27;20048;-82
2023/01/20 11:53:33;;;;;;;48.38;20.52;;;1.80;99.90;;;;;;5098686;27;20047;-81
2023/01/20 11:56:15;;;;;;;54.00;22.08;;;1.90;99.90;;;;;;5098161;27;20077;-80
2023/01/20 11:58:56;;;;;;;49.22;19.33;;;1.80;99.90;;;;;;5105928;27;20519;-83
2023/01/20 12:01:25;;;;;;;53.03;20.35;;;1.10;99.90;;;;;;5112280;27;20102;-82
2023/01/20 12:04:03;;;;;;;47.88;21.48;;;1.90;99.90;;;;;;5099992;27;20095;-81
2023/01/20 12:06:40;;;;;;;49.40;19.98;;;2.10;99.90;;;;;;5126581;27;20055;-84
2023/01/20 12:09:14;;;;;;;46.50;19.90;;;1.80;99.90;;;;;;5126598;27;20447;-83
2023/01/20 12:11:49;;;;;;;49.15;19.60;;;1.80;99.90;;;;;;5104679;27;20403;-84
2023/01/20 12:14:36;;;;;;;48.80;19.48;;;2.10;99.90;;;;;;5106290;27;20447;-85
2023/01/20 12:17:47;;;;;;;48.10;19.77;;;2.10;99.90;;;;;;5111387;27;20046;-85
2023/01/20 12:20:19;;;;;;;43.55;19.30;;;0.80;99.90;;;;;;5110007;27;20050;-83
2023/01/20 12:22:53;;;;;;;42.65;19.30;;;1.90;99.90;;;;;;5104021;27;20816;-84
2023/01/20 12:25:34;;;;;;;41.28;18.83;;;2.20;99.90;;;;;;5108585;27;20167;-84
2023/01/20 12:28:16;;;;;;;41.33;19.52;;;2.00;99.90;;;;;;5112798;27;20047;-86
2023/01/20 12:31:09;;;;;;;41.53;18.70;;;2.20;99.90;;;;;;5106276;27;20527;-84
2023/01/20 12:33:42;;;;;;;37.78;16.63;;;2.20;99.90;;;;;;5117909;27;20043;-85
2023/01/20 12:36:46;;;;;;;43.42;18.00;;;1.90;99.90;;;;;;5103947;27;20057;-81
2023/01/20 12:39:46;;;;;;;40.08;17.85;;;1.90;99.90;;;;;;5099688;27;20047;-80
2023/01/20 12:42:33;;;;;;;42.42;19.23;;;1.90;99.90;;;;;;5099450;27;20047;-80
2023/01/20 12:45:28;;;;;;;40.75;17.60;;;1.90;99.90;;;;;;5105703;27;20089;-80
2023/01/20 12:48:15;;;;;;;41.63;18.25;;;2.00;99.90;;;;;;5056254;27;20064;-80
2023/01/20 12:51:15;;;;;;;45.15;18.85;;;2.00;99.90;;;;;;5101478;27;20342;-81
2023/01/20 12:54:14;;;;;;;42.92;18.90;;;1.90;99.90;;;;;;5097823;27;20176;-80
2023/01/20 12:57:05;;;;;;;40.22;17.55;;;2.00;99.90;;;;;;5098734;27;20046;-80
2023/01/20 13:00:03;;;;;;;47.00;18.13;;;2.10;99.90;;;;;;5107363;27;20067;-79
2023/01/20 13:02:48;;;;;;;42.10;18.48;;;2.10;99.90;;;;;;5114693;27;20141;-81
2023/01/20 13:05:14;;;;;;;47.20;18.50;;;2.10;99.90;;;;;;5107326;27;20134;-79
2023/01/20 13:07:59;;;;;;;48.17;20.40;;;2.10;99.90;;;;;;5102648;27;20057;-81
2023/01/20 13:10:56;;;;;;;43.20;19.23;;;2.00;99.90;;;;;;5106784;27;20130;-81
2023/01/20 13:13:33;;;;;;;43.00;18.00;;;2.00;99.90;;;;;;5120661;27;20544;-83
2023/01/20 13:16:14;;;;;;;37.88;17.60;;;2.00;99.90;;;;;;5139840;27;20047;-82
2023/01/20 13:19:03;;;;;;;42.20;18.13;;;2.00;99.90;;;;;;5120827;27;20042;-83
2023/01/20 13:21:30;;;;;;;49.92;19.55;;;2.00;99.90;;;;;;5105966;27;20146;-81
2023/01/20 13:24:02;;;;;;;41.35;17.50;;;1.10;99.90;;;;;;5107333;27;20058;-81